Time;durP1;ratioP1;P1;durP2;ratioP2;P2;SDS_P1;SDS_P2;PMS_P1;PMS_P2;Temp;Humidity;BMP_temperature;BMP_pressure;BME280_temperature;BME280_humidity;BME280_pressure;Samples;Min_cycle;Max_cycle;Signal;HPM_P1;HPM_P2
2023/10/01 05:46:57;;;;;;;;;18.00;16.33;;;;;;;;6247445;22;46339;-73
2023/10/01 05:49:22;;;;;;;;;20.33;17.67;;;;;;;;6305645;22;45262;-73
2023/10/01 05:51:48;;;;;;;;;18.33;17.67;;;;;;;;6307536;22;45253;-73
2023/10/01 05:54:21;;;;;;;;;20.00;19.00;;;;;;;;6307415;22;46114;-73
2023/10/01 05:56:49;;;;;;;;;19.00;18.00;;;;;;;;6306706;22;45605;-73
2023/10/01 05:59:16;;;;;;;;;20.67;19.00;;;;;;;;6305304;22;45235;-73
2023/10/01 06:01:41;;;;;;;;;21.00;16.33;;;;;;;;6305808;22;45377;-73
2023/10/01 06:04:12;;;;;;;;;21.00;20.00;;;;;;;;6305580;22;45370;-73
2023/10/01 06:06:42;;;;;;;;;23.67;21.33;;;;;;;;6306120;22;45235;-74
2023/10/01 06:09:09;;;;;;;;;20.00;17.67;;;;;;;;6305756;22;45286;-74
2023/10/01 06:12:03;;;;;;;;;21.67;20.33;;;;;;;;6306191;22;45319;-74
2023/10/01 06:14:41;;;;;;;;;19.33;16.33;;;;;;;;6306404;22;44886;-74
2023/10/01 06:17:08;;;;;;;;;19.33;18.33;;;;;;;;6305785;22;45284;-73
2023/10/01 06:19:33;;;;;;;;;22.00;20.00;;;;;;;;6280027;22;45190;-73
2023/10/01 06:22:12;;;;;;;;;21.67;17.67;;;;;;;;6278895;22;45245;-73
2023/10/01 06:24:37;;;;;;;;;28.67;23.67;;;;;;;;6308244;22;45378;-73
2023/10/01 06:27:02;;;;;;;;;24.33;21.00;;;;;;;;6307267;22;45449;-73
2023/10/01 06:29:27;;;;;;;;;22.67;17.33;;;;;;;;6307903;22;45249;-73
2023/10/01 06:31:53;;;;;;;;;21.67;20.00;;;;;;;;6308856;22;45291;-74
2023/10/01 06:34:21;;;;;;;;;21.67;19.33;;;;;;;;6309269;22;46518;-74
2023/10/01 06:36:58;;;;;;;;;29.33;22.67;;;;;;;;6308579;22;45285;-74
2023/10/01 06:39:35;;;;;;;;;24.00;20.67;;;;;;;;6309249;22;44648;-74
2023/10/01 06:42:18;;;;;;;;;22.33;19.00;;;;;;;;6308678;22;45176;-74
2023/10/01 06:44:44;;;;;;;;;21.33;19.33;;;;;;;;6308938;22;45242;-74
2023/10/01 06:47:16;;;;;;;;;27.00;22.67;;;;;;;;6308138;22;46035;-73
2023/10/01 06:49:57;;;;;;;;;28.00;25.33;;;;;;;;6309235;22;45239;-73
2023/10/01 06:52:23;;;;;;;;;22.67;20.00;;;;;;;;6308324;22;45390;-73
2023/10/01 06:54:49;;;;;;;;;20.00;20.00;;;;;;;;6280404;22;45481;-74
2023/10/01 06:57:19;;;;;;;;;24.33;21.00;;;;;;;;6308517;22;45328;-73
2023/10/01 06:59:45;;;;;;;;;30.00;23.33;;;;;;;;6308836;22;45251;-74
2023/10/01 07:02:12;;;;;;;;;27.67;23.67;;;;;;;;6308440;22;45524;-74
2023/10/01 07:04:37;;;;;;;;;31.00;24.67;;;;;;;;6308968;22;45170;-74
2023/10/01 07:07:20;;;;;;;;;28.67;22.00;;;;;;;;6308305;22;46704;-73
2023/10/01 07:09:45;;;;;;;;;26.67;23.00;;;;;;;;6281114;22;44600;-74
2023/10/01 07:12:10;;;;;;;;;25.00;21.33;;;;;;;;6308647;22;45222;-74
2023/10/01 07:14:38;;;;;;;;;28.00;25.00;;;;;;;;6309154;22;45156;-74
2023/10/01 07:17:13;;;;;;;;;26.33;24.00;;;;;;;;6308089;22;45446;-73
2023/10/01 07:19:39;;;;;;;;;24.00;22.00;;;;;;;;6307356;22;45290;-73
2023/10/01 07:22:07;;;;;;;;;25.67;24.00;;;;;;;;6308636;22;45230;-73
2023/10/01 07:24:33;;;;;;;;;24.67;23.67;;;;;;;;6308995;22;45283;-73
2023/10/01 07:27:03;;;;;;;;;22.33;22.33;;;;;;;;6308597;22;45168;-74
2023/10/01 07:29:33;;;;;;;;;26.33;23.00;;;;;;;;6309141;22;45453;-73
2023/10/01 07:32:00;;;;;;;;;29.00;25.00;;;;;;;;6308237;22;45207;-72
2023/10/01 07:34:26;;;;;;;;;26.67;22.67;;;;;;;;6281210;22;45204;-73
2023/10/01 07:36:52;;;;;;;;;25.00;24.67;;;;;;;;6308343;22;45137;-73
2023/10/01 07:39:17;;;;;;;;;20.00;18.67;;;;;;;;6308828;22;45085;-74
2023/10/01 07:41:44;;;;;;;;;26.00;22.00;;;;;;;;6308034;22;45085;-73
2023/10/01 07:44:12;;;;;;;;;25.33;24.33;;;;;;;;6308991;22;45327;-72
2023/10/01 07:46:38;;;;;;;;;25.00;23.33;;;;;;;;6307520;22;45253;-73
2023/10/01 07:49:03;;;;;;;;;25.00;23.33;;;;;;;;6308710;22;45241;-74
2023/10/01 07:51:35;;;;;;;;;24.33;22.33;;;;;;;;6308579;22;45267;-74
2023/10/01 07:54:03;;;;;;;;;24.33;22.67;;;;;;;;6308984;22;45255;-72
2023/10/01 07:56:28;;;;;;;;;26.67;22.67;;;;;;;;6279786;22;47651;-73
2023/10/01 08:01:38;;;;;;;;;24.67;21.67;;;;;;;;6308498;22;45218;-73
2023/10/01 08:04:25;;;;;;;;;20.33;17.33;;;;;;;;6308950;22;45145;-73
2023/10/01 08:06:50;;;;;;;;;18.33;18.33;;;;;;;;6308087;22;45525;-74
2023/10/01 08:09:17;;;;;;;;;20.33;18.00;;;;;;;;6304539;22;45310;-73
2023/10/01 08:14:27;;;;;;;;;22.67;17.67;;;;;;;;6307667;22;45230;-73
2023/10/01 08:16:53;;;;;;;;;14.33;14.00;;;;;;;;6306544;22;45263;-74
2023/10/01 08:19:22;;;;;;;;;20.00;15.67;;;;;;;;6279519;22;45311;-73
2023/10/01 08:21:50;;;;;;;;;14.67;13.67;;;;;;;;6278162;22;45333;-74
2023/10/01 08:24:33;;;;;;;;;19.00;16.33;;;;;;;;6307527;22;45465;-73
2023/10/01 08:27:01;;;;;;;;;21.33;16.33;;;;;;;;6306449;22;47011;-73
2023/10/01 08:29:29;;;;;;;;;15.67;14.33;;;;;;;;6306626;22;45161;-73
2023/10/01 08:34:22;;;;;;;;;18.00;13.00;;;;;;;;6306876;22;45293;-73
2023/10/01 08:36:48;;;;;;;;;14.67;13.33;;;;;;;;6308113;22;45393;-73
2023/10/01 08:39:20;;;;;;;;;17.33;15.00;;;;;;;;6308651;22;45358;-73
2023/10/01 08:41:51;;;;;;;;;13.33;13.00;;;;;;;;6308244;22;45425;-75
2023/10/01 08:44:20;;;;;;;;;14.33;13.67;;;;;;;;6279723;22;46776;-74
2023/10/01 08:46:45;;;;;;;;;16.67;12.00;;;;;;;;6308037;22;45123;-74
2023/10/01 08:49:23;;;;;;;;;21.00;14.33;;;;;;;;6308995;22;45287;-74
2023/10/01 08:51:52;;;;;;;;;13.33;13.00;;;;;;;;6308684;22;45239;-73
2023/10/01 08:54:22;;;;;;;;;14.33;13.67;;;;;;;;6308085;22;45514;-71
2023/10/01 08:56:48;;;;;;;;;16.33;12.33;;;;;;;;6279931;22;47344;-71
2023/10/01 08:59:25;;;;;;;;;16.00;11.00;;;;;;;;6308761;22;45300;-72
2023/10/01 09:01:55;;;;;;;;;11.67;10.67;;;;;;;;6308083;22;45190;-72
2023/10/01 09:04:44;;;;;;;;;11.00;10.67;;;;;;;;6306550;22;45266;-72
2023/10/01 09:07:11;;;;;;;;;9.00;7.00;;;;;;;;6279675;22;47253;-72
2023/10/01 09:09:51;;;;;;;;;12.67;10.00;;;;;;;;6308506;22;45268;-72
2023/10/01 09:12:20;;;;;;;;;13.00;9.00;;;;;;;;6308471;22;45322;-72
2023/10/01 09:14:49;;;;;;;;;10.33;10.00;;;;;;;;6308470;22;45180;-72
2023/10/01 09:17:26;;;;;;;;;9.00;9.00;;;;;;;;6306450;22;45383;-73
2023/10/01 09:19:52;;;;;;;;;10.50;10.50;;;;;;;;6308811;22;45239;-74
2023/10/01 09:22:40;;;;;;;;;13.00;11.00;;;;;;;;6280405;22;45303;-73
2023/10/01 09:25:22;;;;;;;;;9.33;9.00;;;;;;;;6280278;22;47309;-73
2023/10/01 09:27:57;;;;;;;;;11.75;11.00;;;;;;;;6307560;22;45981;-73
2023/10/01 09:30:31;;;;;;;;;12.50;10.00;;;;;;;;6308289;22;45233;-73
2023/10/01 09:33:04;;;;;;;;;11.75;9.50;;;;;;;;6279636;22;45277;-73
2023/10/01 09:35:40;;;;;;;;;9.75;9.75;;;;;;;;6308142;22;45449;-73
2023/10/01 09:38:10;;;;;;;;;8.25;8.25;;;;;;;;6308244;22;45437;-73
2023/10/01 09:40:38;;;;;;;;;11.00;9.00;;;;;;;;6279187;22;45332;-73
2023/10/01 09:43:04;;;;;;;;;12.75;8.75;;;;;;;;6308128;22;45261;-74
2023/10/01 09:45:34;;;;;;;;;7.75;7.75;;;;;;;;6307852;22;45100;-74
2023/10/01 09:47:59;;;;;;;;;8.75;7.25;;;;;;;;6306263;22;46473;-74
2023/10/01 09:50:25;;;;;;;;;11.75;10.25;;;;;;;;6308006;22;45136;-73
2023/10/01 09:52:52;;;;;;;;;9.00;7.50;;;;;;;;6307221;22;45220;-74
2023/10/01 09:55:29;;;;;;;;;16.75;12.75;;;;;;;;6279540;22;45395;-75
2023/10/01 09:57:54;;;;;;;;;8.25;8.00;;;;;;;;6307873;22;45400;-74
2023/10/01 10:00:21;;;;;;;;;9.00;7.75;;;;;;;;6279455;22;45578;-74
2023/10/01 10:02:53;;;;;;;;;10.50;10.00;;;;;;;;6307350;22;45295;-74
2023/10/01 10:05:24;;;;;;;;;11.00;9.00;;;;;;;;6279875;22;45814;-74
2023/10/01 10:07:50;;;;;;;;;10.75;7.25;;;;;;;;6309346;22;45964;-73
2023/10/01 10:10:24;;;;;;;;;11.00;9.60;;;;;;;;6308956;22;45252;-73
2023/10/01 10:12:49;;;;;;;;;8.25;8.25;;;;;;;;6309537;22;45427;-74
2023/10/01 10:15:16;;;;;;;;;13.50;9.25;;;;;;;;6309642;22;45492;-74
2023/10/01 10:18:15;;;;;;;;;9.00;8.20;;;;;;;;6308589;22;45429;-74
2023/10/01 10:21:03;;;;;;;;;8.60;7.60;;;;;;;;6252355;22;45344;-74
2023/10/01 10:23:31;;;;;;;;;7.80;7.40;;;;;;;;6281134;22;45267;-74
2023/10/01 10:26:13;;;;;;;;;13.00;8.80;;;;;;;;6281137;22;47223;-74
2023/10/01 10:28:55;;;;;;;;;8.60;7.60;;;;;;;;6309401;22;46170;-73
2023/10/01 10:31:29;;;;;;;;;7.40;7.40;;;;;;;;6308797;22;45408;-74
2023/10/01 10:34:21;;;;;;;;;8.00;8.00;;;;;;;;6309875;22;45282;-75
2023/10/01 10:36:50;;;;;;;;;9.50;8.00;;;;;;;;6308942;22;45596;-74
2023/10/01 10:39:39;;;;;;;;;10.60;9.20;;;;;;;;6309351;22;45274;-74
2023/10/01 10:42:27;;;;;;;;;8.80;8.40;;;;;;;;6309070;22;45142;-74
2023/10/01 10:45:20;;;;;;;;;8.20;6.80;;;;;;;;6309677;22;45216;-74
2023/10/01 10:47:58;;;;;;;;;10.00;8.80;;;;;;;;6308750;22;45215;-74
2023/10/01 10:50:39;;;;;;;;;8.60;7.00;;;;;;;;6309016;22;45574;-74
2023/10/01 10:53:14;;;;;;;;;8.20;7.40;;;;;;;;6309164;22;45140;-74
2023/10/01 10:55:40;;;;;;;;;5.40;5.40;;;;;;;;6280998;22;45305;-74
2023/10/01 10:58:12;;;;;;;;;8.00;8.00;;;;;;;;6309332;22;45169;-73
2023/10/01 11:00:40;;;;;;;;;7.00;5.20;;;;;;;;6280754;22;46141;-74
2023/10/01 11:03:10;;;;;;;;;8.00;7.00;;;;;;;;6308804;22;45208;-73
2023/10/01 11:05:49;;;;;;;;;9.40;5.40;;;;;;;;6308999;22;45285;-74
2023/10/01 11:08:25;;;;;;;;;5.20;5.20;;;;;;;;6309006;22;45214;-74
2023/10/01 11:10:51;;;;;;;;;5.40;5.40;;;;;;;;6308551;22;46554;-74
2023/10/01 11:13:27;;;;;;;;;3.50;3.50;;;;;;;;6281239;22;46062;-74
2023/10/01 11:15:52;;;;;;;;;5.80;5.80;;;;;;;;6280215;22;45500;-74
2023/10/01 11:18:17;;;;;;;;;7.00;4.50;;;;;;;;6308761;22;45223;-74
2023/10/01 11:20:46;;;;;;;;;12.50;7.75;;;;;;;;6279956;22;47311;-74
2023/10/01 11:23:15;;;;;;;;;7.00;6.00;;;;;;;;6308761;22;45238;-74
2023/10/01 11:25:47;;;;;;;;;5.00;5.00;;;;;;;;6308824;22;45114;-74
2023/10/01 11:28:12;;;;;;;;;6.40;6.20;;;;;;;;6308769;22;45610;-74
2023/10/01 11:30:43;;;;;;;;;10.75;8.00;;;;;;;;6308509;22;45301;-74
2023/10/01 11:35:38;;;;;;;;;8.40;6.60;;;;;;;;6308257;22;45236;-74
2023/10/01 11:38:07;;;;;;;;;8.00;7.00;;;;;;;;6280757;22;45246;-74
2023/10/01 11:43:27;;;;;;;;;7.80;6.60;;;;;;;;6308801;22;45231;-74
2023/10/01 11:46:23;;;;;;;;;12.20;10.20;;;;;;;;6279570;22;45268;-74
2023/10/01 11:49:01;;;;;;;;;6.00;6.00;;;;;;;;6308851;22;45255;-74
2023/10/01 11:51:42;;;;;;;;;8.20;5.00;;;;;;;;6308123;22;46189;-74
2023/10/01 11:54:11;;;;;;;;;10.20;8.00;;;;;;;;6280234;22;45169;-74
2023/10/01 11:56:37;;;;;;;;;10.80;6.80;;;;;;;;6308430;22;45252;-74
2023/10/01 11:59:04;;;;;;;;;12.00;9.75;;;;;;;;6280681;22;46639;-74
2023/10/01 12:01:38;;;;;;;;;8.40;6.80;;;;;;;;6307925;22;45429;-74
2023/10/01 12:04:05;;;;;;;;;8.20;7.00;;;;;;;;6308477;22;45215;-74
2023/10/01 12:06:34;;;;;;;;;6.20;6.20;;;;;;;;6308732;22;45422;-73
2023/10/01 12:08:59;;;;;;;;;8.60;5.20;;;;;;;;6308371;22;45229;-73
2023/10/01 12:11:27;;;;;;;;;31.75;28.00;;;;;;;;6308641;22;45251;-73
2023/10/01 12:14:05;;;;;;;;;11.60;9.00;;;;;;;;6308363;22;45279;-73
2023/10/01 12:16:31;;;;;;;;;8.00;6.20;;;;;;;;6307900;22;45185;-73
2023/10/01 12:21:40;;;;;;;;;8.20;8.20;;;;;;;;6308071;22;45582;-72
2023/10/01 12:24:12;;;;;;;;;9.00;7.50;;;;;;;;6308794;22;45179;-73
2023/10/01 12:26:38;;;;;;;;;10.40;9.40;;;;;;;;6279704;22;45338;-73
2023/10/01 12:29:13;;;;;;;;;10.80;8.80;;;;;;;;6308199;22;45405;-73
2023/10/01 12:31:40;;;;;;;;;9.20;9.20;;;;;;;;6307882;22;45377;-74
2023/10/01 12:34:06;;;;;;;;;7.80;6.80;;;;;;;;6308656;22;45097;-72
2023/10/01 12:36:31;;;;;;;;;10.25;8.25;;;;;;;;6279849;22;45270;-73
2023/10/01 12:41:47;;;;;;;;;6.40;6.40;;;;;;;;6308336;22;45317;-73
2023/10/01 12:44:27;;;;;;;;;8.00;6.40;;;;;;;;6308807;22;45278;-73
2023/10/01 12:47:15;;;;;;;;;8.00;8.00;;;;;;;;6307900;22;45657;-74
2023/10/01 12:49:42;;;;;;;;;11.60;5.80;;;;;;;;6305902;22;45287;-74
2023/10/01 12:52:08;;;;;;;;;9.60;8.60;;;;;;;;6306977;22;45309;-74
2023/10/01 12:54:36;;;;;;;;;7.40;6.80;;;;;;;;6308355;22;45279;-74
2023/10/01 12:57:02;;;;;;;;;11.20;8.00;;;;;;;;6279895;22;45299;-74
2023/10/01 12:59:36;;;;;;;;;7.60;6.40;;;;;;;;6308122;22;45150;-74
2023/10/01 13:02:02;;;;;;;;;11.00;9.20;;;;;;;;6306920;22;45443;-74
2023/10/01 13:04:30;;;;;;;;;11.00;9.25;;;;;;;;6279645;22;45805;-74
2023/10/01 13:07:04;;;;;;;;;7.40;7.40;;;;;;;;6306637;22;45346;-73
2023/10/01 13:12:14;;;;;;;;;7.60;7.20;;;;;;;;6308363;22;45306;-74
2023/10/01 13:14:42;;;;;;;;;9.00;7.00;;;;;;;;6308184;22;45345;-74
2023/10/01 13:17:19;;;;;;;;;11.60;6.60;;;;;;;;6307953;22;45309;-74
2023/10/01 13:19:47;;;;;;;;;8.40;6.80;;;;;;;;6307894;22;45243;-73
2023/10/01 13:22:12;;;;;;;;;10.00;8.00;;;;;;;;6307949;22;46266;-74
2023/10/01 13:24:38;;;;;;;;;7.00;7.00;;;;;;;;6308616;22;45164;-73
2023/10/01 13:27:16;;;;;;;;;9.60;8.00;;;;;;;;6280087;22;45334;-74
2023/10/01 13:29:48;;;;;;;;;8.60;6.20;;;;;;;;6308293;22;45270;-73
2023/10/01 13:32:18;;;;;;;;;9.40;7.20;;;;;;;;6307619;22;46289;-74
2023/10/01 13:34:54;;;;;;;;;8.00;8.00;;;;;;;;6307946;22;45338;-75
2023/10/01 14:10:16;;;;;;;;;11.40;9.80;;;;;;;;6308125;22;45398;-73
2023/10/01 14:12:41;;;;;;;;;7.60;7.60;;;;;;;;6306933;22;45251;-73
2023/10/01 14:15:20;;;;;;;;;9.50;9.25;;;;;;;;6307731;22;45351;-72
2023/10/01 14:17:52;;;;;;;;;8.00;7.00;;;;;;;;6276298;22;45208;-74
2023/10/01 14:20:37;;;;;;;;;14.80;6.80;;;;;;;;6307988;22;45239;-74
2023/10/01 14:23:02;;;;;;;;;11.40;8.60;;;;;;;;6306732;22;45447;-73
2023/10/01 14:25:29;;;;;;;;;13.25;11.50;;;;;;;;6307406;22;45522;-73
2023/10/01 14:27:59;;;;;;;;;5.60;5.40;;;;;;;;6307282;22;45162;-73
2023/10/01 14:30:24;;;;;;;;;14.40;8.00;;;;;;;;6306797;22;45227;-73
2023/10/01 14:32:54;;;;;;;;;11.25;7.50;;;;;;;;6307421;22;45374;-73
2023/10/01 14:35:20;;;;;;;;;6.80;6.80;;;;;;;;6307313;22;45578;-73
2023/10/01 14:37:54;;;;;;;;;10.75;7.25;;;;;;;;6279193;22;45263;-73
2023/10/01 14:40:23;;;;;;;;;5.80;5.80;;;;;;;;6278590;22;45201;-73
2023/10/01 14:42:48;;;;;;;;;6.40;6.40;;;;;;;;6278682;22;46391;-73
2023/10/01 14:45:13;;;;;;;;;7.50;6.50;;;;;;;;6307655;22;46308;-72
2023/10/01 14:47:42;;;;;;;;;7.00;5.75;;;;;;;;6306263;22;45348;-73
2023/10/01 14:50:08;;;;;;;;;8.00;5.80;;;;;;;;6279812;22;45311;-73
2023/10/01 14:52:40;;;;;;;;;8.00;6.50;;;;;;;;6308551;22;45352;-72
2023/10/01 14:55:06;;;;;;;;;7.20;6.20;;;;;;;;6309238;22;45639;-73
2023/10/01 14:57:32;;;;;;;;;8.50;6.25;;;;;;;;6280659;22;45476;-72
2023/10/01 14:59:57;;;;;;;;;7.20;7.20;;;;;;;;6308732;22;45362;-73
2023/10/01 15:02:23;;;;;;;;;9.00;7.00;;;;;;;;6308327;22;45353;-73
2023/10/01 15:04:48;;;;;;;;;6.75;6.00;;;;;;;;6280985;22;46874;-73
2023/10/01 15:07:16;;;;;;;;;8.25;5.50;;;;;;;;6308486;22;45350;-73
2023/10/01 15:09:42;;;;;;;;;6.00;5.40;;;;;;;;6309138;22;45262;-73
2023/10/01 15:12:09;;;;;;;;;9.25;7.75;;;;;;;;6308922;22;45205;-73
2023/10/01 15:14:34;;;;;;;;;9.00;7.00;;;;;;;;6280243;22;46590;-72
2023/10/01 15:17:01;;;;;;;;;7.00;6.00;;;;;;;;6280098;22;45285;-73
2023/10/01 15:19:26;;;;;;;;;6.20;6.00;;;;;;;;6281246;22;45295;-73
2023/10/01 15:22:02;;;;;;;;;6.00;5.00;;;;;;;;6308985;22;45688;-72
2023/10/01 15:24:28;;;;;;;;;6.60;5.80;;;;;;;;6309127;22;45330;-72
2023/10/01 15:26:58;;;;;;;;;10.50;8.00;;;;;;;;6302070;22;45291;-73
2023/10/01 15:29:30;;;;;;;;;6.80;6.00;;;;;;;;6279892;22;45670;-73
2023/10/01 15:31:56;;;;;;;;;7.20;6.00;;;;;;;;6278055;22;46170;-73
2023/10/01 15:34:21;;;;;;;;;7.50;6.25;;;;;;;;6307777;22;46534;-73
2023/10/01 15:36:47;;;;;;;;;6.50;6.50;;;;;;;;6306560;22;45393;-72
2023/10/01 15:39:16;;;;;;;;;12.50;7.25;;;;;;;;6279491;22;45217;-73
2023/10/01 15:41:42;;;;;;;;;7.00;6.00;;;;;;;;6307583;22;45361;-73
2023/10/01 15:44:11;;;;;;;;;7.80;7.00;;;;;;;;6279055;22;47281;-72
2023/10/01 15:46:46;;;;;;;;;35.00;30.50;;;;;;;;6306003;22;45275;-72
2023/10/01 15:49:20;;;;;;;;;7.40;6.80;;;;;;;;6307326;22;45303;-72
2023/10/01 15:51:48;;;;;;;;;22.75;20.25;;;;;;;;6307391;22;45457;-72
2023/10/01 15:54:22;;;;;;;;;8.60;8.60;;;;;;;;6277845;22;47934;-72
2023/10/01 15:56:51;;;;;;;;;10.80;8.00;;;;;;;;6306940;22;45278;-72
2023/10/01 15:59:19;;;;;;;;;12.20;12.20;;;;;;;;6307557;22;45381;-72
2023/10/01 16:01:50;;;;;;;;;8.20;7.00;;;;;;;;6307138;22;45446;-72
2023/10/01 16:04:15;;;;;;;;;7.60;6.00;;;;;;;;6305183;22;46568;-71
2023/10/01 16:06:41;;;;;;;;;15.75;12.00;;;;;;;;6278135;22;45376;-72
2023/10/01 16:09:06;;;;;;;;;11.25;9.25;;;;;;;;6279436;22;45281;-72
2023/10/01 16:11:33;;;;;;;;;8.25;8.25;;;;;;;;6305873;22;45251;-71
2023/10/01 16:14:03;;;;;;;;;7.60;7.00;;;;;;;;6307448;22;46298;-72
2023/10/01 16:16:29;;;;;;;;;6.00;4.60;;;;;;;;6305691;22;45542;-71
2023/10/01 16:18:55;;;;;;;;;7.50;7.00;;;;;;;;6307922;22;45355;-72
2023/10/01 16:21:21;;;;;;;;;13.00;10.80;;;;;;;;6306474;22;45312;-71
2023/10/01 16:23:49;;;;;;;;;13.80;9.80;;;;;;;;6307391;22;45282;-71
2023/10/01 16:26:15;;;;;;;;;13.60;10.40;;;;;;;;6277213;22;45269;-72
2023/10/01 16:28:40;;;;;;;;;45.50;33.50;;;;;;;;6307584;22;45160;-72
2023/10/01 16:31:06;;;;;;;;;25.00;22.00;;;;;;;;6307459;22;45281;-71
2023/10/01 16:33:42;;;;;;;;;15.40;9.60;;;;;;;;6308665;22;45115;-72
2023/10/01 16:36:16;;;;;;;;;10.00;8.60;;;;;;;;6279281;22;45626;-71
2023/10/01 16:38:42;;;;;;;;;13.40;11.00;;;;;;;;6280218;22;45220;-72
2023/10/01 16:41:10;;;;;;;;;22.75;17.50;;;;;;;;6278741;22;45504;-72
2023/10/01 16:43:39;;;;;;;;;13.75;13.00;;;;;;;;6308265;22;45375;-71
2023/10/01 16:46:07;;;;;;;;;15.80;15.20;;;;;;;;6307578;22;45215;-71
2023/10/01 16:48:32;;;;;;;;;15.50;13.75;;;;;;;;6307947;22;45221;-71
2023/10/01 16:51:00;;;;;;;;;13.00;12.00;;;;;;;;6308145;22;45201;-72
2023/10/01 16:53:30;;;;;;;;;37.75;30.75;;;;;;;;6308357;22;46537;-71
2023/10/01 16:55:56;;;;;;;;;60.33;45.33;;;;;;;;6307794;22;45090;-71
2023/10/01 16:58:35;;;;;;;;;28.50;23.50;;;;;;;;6308497;22;45141;-71
2023/10/01 17:01:12;;;;;;;;;30.75;23.50;;;;;;;;6308187;22;45209;-71
2023/10/01 17:03:39;;;;;;;;;23.25;21.00;;;;;;;;6279662;22;47514;-71
2023/10/01 17:06:07;;;;;;;;;23.00;22.50;;;;;;;;6307802;22;45137;-71
2023/10/01 17:08:34;;;;;;;;;21.00;16.00;;;;;;;;6307270;22;45220;-71
2023/10/01 17:11:00;;;;;;;;;54.00;44.00;;;;;;;;6307862;22;45236;-70
2023/10/01 17:13:25;;;;;;;;;46.00;37.33;;;;;;;;6279826;22;45557;-71
2023/10/01 17:15:52;;;;;;;;;29.33;27.67;;;;;;;;6307377;22;45248;-71
2023/10/01 17:18:21;;;;;;;;;39.00;31.33;;;;;;;;6280230;22;45248;-71
2023/10/01 17:20:50;;;;;;;;;19.33;17.67;;;;;;;;6305285;22;45182;-71
2023/10/01 17:23:16;;;;;;;;;33.33;27.67;;;;;;;;6279644;22;47091;-71
2023/10/01 17:25:45;;;;;;;;;29.67;26.67;;;;;;;;6307475;22;45292;-71
2023/10/01 17:28:23;;;;;;;;;28.25;27.00;;;;;;;;6279269;22;45339;-71
2023/10/01 17:30:48;;;;;;;;;25.25;24.00;;;;;;;;6307288;22;45216;-71
2023/10/01 17:33:14;;;;;;;;;28.00;24.75;;;;;;;;6308028;22;45553;-71
2023/10/01 17:35:47;;;;;;;;;27.50;19.25;;;;;;;;6307529;22;45328;-71
2023/10/01 17:38:13;;;;;;;;;31.75;29.00;;;;;;;;6308116;22;45230;-71
2023/10/01 17:40:47;;;;;;;;;25.50;22.25;;;;;;;;6307797;22;45488;-71
2023/10/01 17:43:13;;;;;;;;;22.50;20.50;;;;;;;;6307417;22;45666;-71
2023/10/01 17:45:38;;;;;;;;;26.50;22.00;;;;;;;;6307232;22;45368;-71
2023/10/01 17:48:10;;;;;;;;;26.00;21.00;;;;;;;;6307227;22;45422;-71
2023/10/01 17:50:35;;;;;;;;;20.00;18.00;;;;;;;;6307404;22;45141;-71
2023/10/01 17:53:02;;;;;;;;;25.00;20.33;;;;;;;;6307216;22;45284;-71
2023/10/01 17:55:30;;;;;;;;;18.75;17.75;;;;;;;;6307519;22;45260;-71
2023/10/01 17:57:55;;;;;;;;;19.25;15.00;;;;;;;;6277490;22;45346;-71
2023/10/01 18:00:41;;;;;;;;;22.50;14.50;;;;;;;;6307080;22;45536;-71
2023/10/01 18:03:10;;;;;;;;;16.50;15.00;;;;;;;;6307357;22;46469;-71
2023/10/01 18:05:39;;;;;;;;;20.50;15.25;;;;;;;;6307569;22;44656;-70
2023/10/01 18:08:04;;;;;;;;;17.75;14.75;;;;;;;;6307686;22;45247;-71
2023/10/01 18:10:36;;;;;;;;;17.50;15.75;;;;;;;;6307348;22;45349;-71
2023/10/01 18:13:10;;;;;;;;;16.50;13.75;;;;;;;;6278611;22;46926;-70
2023/10/01 18:15:36;;;;;;;;;15.75;13.75;;;;;;;;6278425;22;45344;-71
2023/10/01 18:18:01;;;;;;;;;15.75;13.25;;;;;;;;6278990;22;45097;-71
2023/10/01 18:20:32;;;;;;;;;15.67;13.00;;;;;;;;6307360;22;45208;-71
2023/10/01 18:22:59;;;;;;;;;15.00;13.00;;;;;;;;6308554;22;45999;-71
2023/10/01 18:25:24;;;;;;;;;16.25;14.50;;;;;;;;6308720;22;45234;-71
2023/10/01 18:27:54;;;;;;;;;13.00;10.25;;;;;;;;6309129;22;45487;-71
2023/10/01 18:30:19;;;;;;;;;17.33;15.00;;;;;;;;6308414;22;45628;-71
2023/10/01 18:32:46;;;;;;;;;18.50;14.00;;;;;;;;6308176;22;45716;-71
2023/10/01 18:35:12;;;;;;;;;18.33;14.67;;;;;;;;6309080;22;45251;-71
2023/10/01 18:37:38;;;;;;;;;16.33;13.33;;;;;;;;6307713;22;45405;-71
2023/10/01 18:40:13;;;;;;;;;12.75;12.50;;;;;;;;6307547;22;45201;-71
2023/10/01 18:42:38;;;;;;;;;16.00;14.00;;;;;;;;6280199;22;47115;-70
2023/10/01 18:45:10;;;;;;;;;12.50;12.50;;;;;;;;6279948;22;45224;-71
2023/10/01 18:47:35;;;;;;;;;16.50;13.00;;;;;;;;6306660;22;45408;-71
2023/10/01 18:50:01;;;;;;;;;13.67;13.33;;;;;;;;6280676;22;45253;-71
2023/10/01 18:52:26;;;;;;;;;13.00;11.33;;;;;;;;6307988;22;45652;-71
2023/10/01 18:54:51;;;;;;;;;15.00;13.00;;;;;;;;6308856;22;45328;-71
2023/10/01 18:57:18;;;;;;;;;14.33;9.67;;;;;;;;6279931;22;44668;-71
2023/10/01 18:59:43;;;;;;;;;21.67;16.00;;;;;;;;6308824;22;45272;-71
2023/10/01 19:02:11;;;;;;;;;19.00;17.00;;;;;;;;6306851;22;46464;-70
2023/10/01 19:04:36;;;;;;;;;19.67;16.67;;;;;;;;6280608;22;45272;-71
2023/10/01 19:07:02;;;;;;;;;18.00;14.00;;;;;;;;6308546;22;45151;-70
2023/10/01 19:09:27;;;;;;;;;14.67;13.00;;;;;;;;6308521;22;45425;-70
2023/10/01 19:11:57;;;;;;;;;17.33;14.00;;;;;;;;6279055;22;47160;-71
2023/10/01 19:14:23;;;;;;;;;15.33;15.00;;;;;;;;6280159;22;45239;-70
2023/10/01 19:16:49;;;;;;;;;16.67;14.67;;;;;;;;6308059;22;45192;-70
2023/10/01 19:19:15;;;;;;;;;16.67;14.00;;;;;;;;6308737;22;45217;-71
2023/10/01 19:21:41;;;;;;;;;16.67;15.00;;;;;;;;6280086;22;45514;-70
2023/10/01 19:24:06;;;;;;;;;18.33;16.33;;;;;;;;6308491;22;45196;-71
2023/10/01 19:26:31;;;;;;;;;18.67;16.00;;;;;;;;6308622;22;45173;-71
2023/10/01 19:28:56;;;;;;;;;19.67;16.00;;;;;;;;6280747;22;45805;-71
2023/10/01 19:31:25;;;;;;;;;21.67;18.67;;;;;;;;6307961;22;45196;-71
2023/10/01 19:33:51;;;;;;;;;18.00;16.00;;;;;;;;6308351;22;45327;-71
2023/10/01 19:36:18;;;;;;;;;20.67;18.67;;;;;;;;6279749;22;45354;-71
2023/10/01 19:38:46;;;;;;;;;19.33;16.33;;;;;;;;6279116;22;46480;-71
2023/10/01 19:41:12;;;;;;;;;17.00;16.00;;;;;;;;6279424;22;46223;-71
2023/10/01 19:43:37;;;;;;;;;30.00;20.00;;;;;;;;6279624;22;45302;-71
2023/10/01 19:46:03;;;;;;;;;21.00;15.67;;;;;;;;6308027;22;45612;-71
2023/10/01 19:48:28;;;;;;;;;20.33;19.00;;;;;;;;6308175;22;45163;-71
2023/10/01 19:50:56;;;;;;;;;20.33;16.33;;;;;;;;6308350;22;45232;-70
2023/10/01 19:53:30;;;;;;;;;21.00;18.67;;;;;;;;6308336;22;45307;-71
2023/10/01 19:55:58;;;;;;;;;23.00;16.00;;;;;;;;6308165;22;45404;-70
2023/10/01 19:58:33;;;;;;;;;21.33;19.33;;;;;;;;6307957;22;45188;-71
2023/10/01 20:01:07;;;;;;;;;21.67;18.00;;;;;;;;6307969;22;45585;-71
2023/10/01 20:03:33;;;;;;;;;25.00;17.67;;;;;;;;6308694;22;45316;-71
2023/10/01 20:06:04;;;;;;;;;19.67;18.33;;;;;;;;6308554;22;45246;-71
2023/10/01 20:08:34;;;;;;;;;21.67;20.00;;;;;;;;6279165;22;46610;-71
2023/10/01 20:10:59;;;;;;;;;19.67;18.67;;;;;;;;6278765;22;46434;-71
2023/10/01 20:13:29;;;;;;;;;26.67;21.33;;;;;;;;6308663;22;45266;-71
2023/10/01 20:15:55;;;;;;;;;19.00;19.00;;;;;;;;6278793;22;45238;-71
2023/10/01 20:18:21;;;;;;;;;25.00;19.00;;;;;;;;6308676;22;45216;-71
2023/10/01 20:20:48;;;;;;;;;23.00;21.00;;;;;;;;6307949;22;46357;-71
2023/10/01 20:23:14;;;;;;;;;30.50;27.50;;;;;;;;6308738;22;45289;-70
2023/10/01 20:25:41;;;;;;;;;38.00;29.00;;;;;;;;6308232;22;45240;-72
2023/10/01 20:28:07;;;;;;;;;37.00;29.33;;;;;;;;6308344;22;45096;-71
2023/10/01 20:30:37;;;;;;;;;31.33;24.67;;;;;;;;6279484;22;47162;-71
2023/10/01 20:33:03;;;;;;;;;38.33;32.00;;;;;;;;6308249;22;45271;-72
2023/10/01 20:35:29;;;;;;;;;34.33;30.33;;;;;;;;6308519;22;45430;-71
2023/10/01 20:37:56;;;;;;;;;30.67;27.33;;;;;;;;6308415;22;45248;-71
2023/10/01 20:40:21;;;;;;;;;30.67;25.67;;;;;;;;6308199;22;45877;-71
2023/10/01 20:42:46;;;;;;;;;30.33;26.33;;;;;;;;6308081;22;45085;-71
2023/10/01 20:45:20;;;;;;;;;36.67;29.67;;;;;;;;6280405;22;45281;-71
2023/10/01 20:47:45;;;;;;;;;35.67;30.33;;;;;;;;6306246;22;45173;-71
2023/10/01 20:50:27;;;;;;;;;29.67;25.00;;;;;;;;6307152;22;45184;-71
